createdAt,value
2022-09-25T00:02:21.039Z,14.95
2022-09-25T00:04:48.660Z,14.89
2022-09-25T00:07:16.045Z,14.68
2022-09-25T00:09:43.390Z,14.91
2022-09-25T00:12:10.969Z,14.88
2022-09-25T00:14:38.286Z,14.50
2022-09-25T00:17:05.655Z,14.69
2022-09-25T00:19:51.542Z,14.60
2022-09-25T00:22:19.567Z,14.66
2022-09-25T00:24:47.564Z,14.86
2022-09-25T00:27:15.336Z,14.76
2022-09-25T00:29:42.745Z,14.63
2022-09-25T00:32:11.305Z,14.91
2022-09-25T00:34:38.801Z,14.93
2022-09-25T00:37:06.375Z,15.01
2022-09-25T00:39:34.047Z,15.00
2022-09-25T00:42:01.396Z,15.10
2022-09-25T00:44:56.861Z,15.14
2022-09-25T00:47:49.282Z,15.09
2022-09-25T00:50:26.935Z,15.07
2022-09-25T00:52:55.429Z,14.94
2022-09-25T00:55:23.963Z,15.12
2022-09-25T00:57:53.240Z,15.22
2022-09-25T01:00:20.837Z,15.16
2022-09-25T01:02:53.282Z,15.20
2022-09-25T01:05:24.513Z,15.03
2022-09-25T01:07:52.280Z,14.85
2022-09-25T01:10:20.379Z,15.23
2022-09-25T01:12:48.537Z,15.28
2022-09-25T01:15:17.664Z,15.42
2022-09-25T01:18:02.973Z,15.57
2022-09-25T01:20:41.079Z,15.40
2022-09-25T01:23:20.807Z,15.48
2022-09-25T01:25:55.398Z,15.39
2022-09-25T01:28:29.445Z,14.99
2022-09-25T01:31:03.881Z,15.06
2022-09-25T01:33:35.708Z,15.23
2022-09-25T01:36:06.970Z,14.96
2022-09-25T01:38:42.952Z,15.21
2022-09-25T01:41:27.504Z,14.99
2022-09-25T01:44:10.149Z,15.43
2022-09-25T01:46:44.126Z,15.08
2022-09-25T01:49:22.902Z,15.26
2022-09-25T01:51:52.534Z,14.66
2022-09-25T01:54:32.948Z,14.57
2022-09-25T01:57:22.561Z,14.98
2022-09-25T01:59:56.993Z,14.98
2022-09-25T02:02:30.266Z,14.95
2022-09-25T02:05:02.798Z,14.95
2022-09-25T02:07:34.250Z,14.98
2022-09-25T02:10:14.338Z,15.06
2022-09-25T02:12:47.364Z,15.02
2022-09-25T02:15:35.518Z,14.76
2022-09-25T02:18:26.156Z,14.56
2022-09-25T02:21:00.047Z,14.67
2022-09-25T02:23:32.775Z,14.73
2022-09-25T02:26:09.618Z,14.75
2022-09-25T02:28:36.998Z,14.67
2022-09-25T02:31:08.388Z,14.66
2022-09-25T02:33:35.925Z,14.71
2022-09-25T02:36:03.801Z,14.59
2022-09-25T02:38:33.539Z,14.15
2022-09-25T02:41:03.703Z,14.37
2022-09-25T02:43:46.201Z,14.47
2022-09-25T02:46:19.447Z,14.60
2022-09-25T02:48:53.070Z,14.36
2022-09-25T02:51:34.482Z,14.19
2022-09-25T02:54:05.187Z,14.37
2022-09-25T02:56:35.151Z,14.48
2022-09-25T02:59:06.877Z,14.49
2022-09-25T03:01:35.262Z,14.45
2022-09-25T03:04:03.528Z,14.54
2022-09-25T03:06:31.102Z,14.26
2022-09-25T03:08:58.605Z,14.49
2022-09-25T03:11:28.961Z,14.67
2022-09-25T03:14:00.606Z,14.59
2022-09-25T03:16:49.140Z,14.50
2022-09-25T03:19:16.577Z,14.41
2022-09-25T03:21:44.174Z,14.67
2022-09-25T03:24:11.528Z,14.68
2022-09-25T03:26:40.554Z,14.99
2022-09-25T03:29:08.281Z,14.38
2022-09-25T03:31:35.748Z,14.31
2022-09-25T03:34:03.130Z,14.11
2022-09-25T03:36:30.926Z,14.49
2022-09-25T03:38:59.142Z,14.70
2022-09-25T03:41:28.890Z,14.75
2022-09-25T03:43:56.779Z,14.50
2022-09-25T03:46:26.758Z,14.45
2022-09-25T03:48:54.238Z,14.89
2022-09-25T03:51:22.009Z,14.63
2022-09-25T03:53:50.059Z,14.67
2022-09-25T03:56:20.293Z,14.63
2022-09-25T03:58:48.285Z,14.85
2022-09-25T04:01:15.923Z,14.81
2022-09-25T04:03:47.044Z,14.57
2022-09-25T04:06:18.440Z,14.70
2022-09-25T04:08:46.516Z,14.60
2022-09-25T04:11:15.139Z,14.65
2022-09-25T04:13:44.056Z,14.89
2022-09-25T04:16:12.079Z,14.72
2022-09-25T04:18:41.816Z,14.58
2022-09-25T04:21:10.069Z,14.65
2022-09-25T04:23:37.733Z,14.49
2022-09-25T04:26:05.260Z,14.85
2022-09-25T04:28:33.082Z,14.95
2022-09-25T04:31:00.840Z,14.85
2022-09-25T04:33:46.443Z,14.69
2022-09-25T04:36:19.181Z,14.51
2022-09-25T04:38:48.118Z,14.56
2022-09-25T04:41:16.598Z,14.88
2022-09-25T04:43:43.957Z,14.85
2022-09-25T04:46:16.727Z,14.88
2022-09-25T04:48:47.878Z,14.80
2022-09-25T04:51:15.247Z,14.89
2022-09-25T04:53:43.104Z,14.98
2022-09-25T04:56:15.914Z,15.06
2022-09-25T04:58:45.952Z,15.31
2022-09-25T05:01:13.625Z,15.11
2022-09-25T05:03:41.072Z,15.24
2022-09-25T05:06:08.486Z,15.17
2022-09-25T05:08:36.059Z,15.14
2022-09-25T05:11:03.913Z,15.14
2022-09-25T05:13:31.403Z,15.28
2022-09-25T05:15:59.057Z,15.11
2022-09-25T05:18:26.761Z,15.18
2022-09-25T05:20:54.339Z,15.58
2022-09-25T05:23:22.086Z,15.47
2022-09-25T05:26:02.262Z,15.36
2022-09-25T05:28:31.020Z,15.41
2022-09-25T05:31:04.613Z,15.51
2022-09-25T05:33:32.699Z,15.48
2022-09-25T05:36:04.498Z,15.09
2022-09-25T05:38:32.491Z,14.88
2022-09-25T05:41:05.001Z,15.31
2022-09-25T05:43:32.796Z,15.35
2022-09-25T05:46:00.370Z,15.65
2022-09-25T05:48:27.847Z,15.75
2022-09-25T05:50:56.388Z,15.85
2022-09-25T05:53:23.924Z,15.92
2022-09-25T05:55:55.685Z,15.92
2022-09-25T05:58:23.287Z,15.86
2022-09-25T06:00:50.840Z,15.80
2022-09-25T06:03:18.670Z,15.93
2022-09-25T06:05:46.285Z,16.23
2022-09-25T06:08:13.834Z,16.29
2022-09-25T06:10:41.706Z,16.59
2022-09-25T06:13:09.025Z,16.57
2022-09-25T06:15:37.718Z,16.34
2022-09-25T06:18:05.772Z,16.19
2022-09-25T06:20:33.167Z,16.15
2022-09-25T06:23:03.671Z,16.26
2022-09-25T06:25:32.598Z,16.39
2022-09-25T06:28:00.649Z,16.47
2022-09-25T06:30:34.421Z,16.58
2022-09-25T06:33:10.748Z,16.66
2022-09-25T06:35:41.750Z,16.73
2022-09-25T06:38:09.597Z,16.74
2022-09-25T06:40:38.801Z,16.71
2022-09-25T06:43:07.795Z,16.80
2022-09-25T06:45:35.670Z,16.82
2022-09-25T06:48:13.319Z,16.47
2022-09-25T06:50:44.596Z,16.85
2022-09-25T06:53:12.060Z,16.51
2022-09-25T06:55:39.466Z,16.79
2022-09-25T06:58:08.398Z,17.23
2022-09-25T07:00:35.748Z,17.33
2022-09-25T07:03:21.745Z,17.31
2022-09-25T07:05:49.431Z,17.66
2022-09-25T07:08:17.576Z,17.80
2022-09-25T07:10:51.961Z,17.72
2022-09-25T07:13:24.396Z,17.73
2022-09-25T07:15:56.346Z,17.63
2022-09-25T07:18:24.503Z,17.85
2022-09-25T07:20:52.891Z,17.84
2022-09-25T07:23:21.078Z,18.31
2022-09-25T07:25:49.530Z,18.21
2022-09-25T07:28:18.998Z,18.35
2022-09-25T07:30:46.701Z,18.62
2022-09-25T07:33:14.462Z,18.72
2022-09-25T07:35:41.796Z,19.03
2022-09-25T07:38:09.112Z,19.08
2022-09-25T07:40:36.755Z,19.52
2022-09-25T07:43:04.597Z,19.61
2022-09-25T07:45:32.325Z,20.03
2022-09-25T07:48:01.597Z,20.29
2022-09-25T07:50:29.563Z,20.42
2022-09-25T07:52:57.069Z,19.96
2022-09-25T07:55:24.750Z,20.34
2022-09-25T07:57:53.350Z,20.45
2022-09-25T08:00:20.688Z,19.87
2022-09-25T08:02:55.740Z,20.04
2022-09-25T08:05:23.163Z,20.09
2022-09-25T08:07:50.746Z,20.13
2022-09-25T08:10:18.841Z,19.88
2022-09-25T08:12:46.185Z,19.83
2022-09-25T08:15:16.917Z,19.65
2022-09-25T08:17:44.272Z,19.75
2022-09-25T08:20:11.581Z,19.52
2022-09-25T08:22:39.202Z,19.91
2022-09-25T08:25:06.936Z,19.68
2022-09-25T08:27:39.648Z,19.80
2022-09-25T08:30:09.042Z,19.66
2022-09-25T08:32:36.567Z,19.67
2022-09-25T08:35:04.472Z,19.49
2022-09-25T08:37:32.313Z,19.40
2022-09-25T08:39:59.905Z,19.03
2022-09-25T08:42:33.116Z,19.31
2022-09-25T08:45:22.423Z,19.55
2022-09-25T08:48:10.192Z,19.46
2022-09-25T08:50:37.894Z,19.54
2022-09-25T08:53:15.861Z,19.68
2022-09-25T08:56:02.069Z,19.24
2022-09-25T08:58:34.311Z,19.22
2022-09-25T09:01:04.204Z,19.25
2022-09-25T09:03:32.131Z,19.32
2022-09-25T09:06:02.774Z,19.47
2022-09-25T09:08:31.383Z,19.23
2022-09-25T09:11:13.606Z,19.44
2022-09-25T09:13:58.278Z,19.52
2022-09-25T09:16:47.010Z,19.44
2022-09-25T09:19:14.600Z,19.39
2022-09-25T09:21:47.391Z,18.91
2022-09-25T09:24:37.086Z,19.32
2022-09-25T09:27:23.120Z,19.29
2022-09-25T09:30:15.501Z,19.23
2022-09-25T09:33:01.442Z,18.96
2022-09-25T09:35:42.535Z,18.83
2022-09-25T09:38:44.247Z,18.77
2022-09-25T09:41:44.027Z,18.94
2022-09-25T09:44:40.021Z,19.02
2022-09-25T09:47:39.508Z,18.87
2022-09-25T09:50:43.906Z,18.94
2022-09-25T09:53:34.277Z,18.55
2022-09-25T09:56:14.822Z,18.91
2022-09-25T09:58:57.137Z,18.95
2022-09-25T10:01:40.978Z,18.41
2022-09-25T10:04:24.722Z,18.34
2022-09-25T10:06:55.505Z,18.79
2022-09-25T10:09:25.917Z,18.67
2022-09-25T10:12:07.485Z,18.98
2022-09-25T10:14:38.606Z,19.12
2022-09-25T10:17:05.907Z,19.16
2022-09-25T10:20:03.494Z,19.00
2022-09-25T10:22:37.428Z,18.72
2022-09-25T10:25:06.516Z,18.77
2022-09-25T10:27:41.330Z,18.63
2022-09-25T10:30:11.674Z,18.61
2022-09-25T10:32:43.306Z,18.87
2022-09-25T10:35:19.201Z,18.74
2022-09-25T10:37:54.638Z,18.59
2022-09-25T10:40:28.153Z,18.69
2022-09-25T10:43:24.231Z,18.48
2022-09-25T10:46:12.934Z,19.14
2022-09-25T10:48:59.315Z,18.81
2022-09-25T10:51:26.674Z,18.86
2022-09-25T10:54:13.281Z,19.15
2022-09-25T10:56:40.648Z,19.22
2022-09-25T10:59:19.518Z,19.45
2022-09-25T11:01:47.712Z,19.36
2022-09-25T11:04:21.614Z,19.51
2022-09-25T11:06:52.333Z,19.73
2022-09-25T11:09:22.262Z,19.69
2022-09-25T11:11:50.161Z,19.97
2022-09-25T11:14:45.368Z,19.46
2022-09-25T11:17:32.554Z,19.88
2022-09-25T11:20:31.659Z,19.35
2022-09-25T11:23:24.681Z,19.32
2022-09-25T11:26:16.634Z,19.55
2022-09-25T11:29:07.458Z,19.69
2022-09-25T11:31:43.565Z,19.84
2022-09-25T11:34:34.097Z,18.54
2022-09-25T11:37:30.963Z,18.45
2022-09-25T11:40:29.796Z,18.90
2022-09-25T11:43:14.465Z,18.18
2022-09-25T11:45:51.578Z,18.21
2022-09-25T11:48:51.466Z,17.79
2022-09-25T11:51:39.240Z,18.00
2022-09-25T11:54:45.151Z,18.34
2022-09-25T11:57:18.316Z,18.56
2022-09-25T12:00:06.928Z,18.11
2022-09-25T12:03:01.044Z,18.64
2022-09-25T12:05:49.269Z,18.33
2022-09-25T12:08:38.706Z,18.26
2022-09-25T12:11:45.827Z,18.38
2022-09-25T12:14:17.221Z,18.43
2022-09-25T12:17:00.509Z,17.87
2022-09-25T12:19:52.114Z,17.95
2022-09-25T12:22:39.743Z,17.97
2022-09-25T12:25:48.047Z,18.41
2022-09-25T12:28:37.149Z,18.44
2022-09-25T12:31:23.611Z,18.12
2022-09-25T12:34:06.290Z,17.75
2022-09-25T12:36:42.723Z,17.91
2022-09-25T12:39:20.207Z,17.85
2022-09-25T12:41:55.741Z,17.50
2022-09-25T12:44:50.336Z,17.27
2022-09-25T12:47:37.570Z,17.58
2022-09-25T12:50:14.990Z,17.31
2022-09-25T12:53:05.674Z,17.48
2022-09-25T12:55:41.058Z,17.62
2022-09-25T12:58:23.113Z,17.54
2022-09-25T13:00:56.135Z,17.41
2022-09-25T13:03:46.245Z,17.28
2022-09-25T13:06:25.420Z,17.62
2022-09-25T13:08:57.939Z,16.84
2022-09-25T13:12:02.810Z,16.70
2022-09-25T13:14:34.684Z,17.26
2022-09-25T13:17:02.507Z,16.58
2022-09-25T13:19:33.266Z,16.56
2022-09-25T13:22:24.915Z,16.83
2022-09-25T13:25:02.326Z,16.80
2022-09-25T13:27:37.395Z,16.89
2022-09-25T13:30:05.768Z,16.99
2022-09-25T13:32:35.962Z,17.08
2022-09-25T13:35:06.093Z,17.59
2022-09-25T13:37:36.102Z,17.35
2022-09-25T13:40:35.979Z,17.33
2022-09-25T13:43:24.335Z,17.48
2022-09-25T13:46:15.073Z,17.49
2022-09-25T13:48:42.848Z,17.43
2022-09-25T13:51:18.031Z,17.64
2022-09-25T13:54:03.784Z,17.25
2022-09-25T13:56:34.269Z,17.53
2022-09-25T13:59:20.363Z,17.24
2022-09-25T14:01:57.708Z,16.89
2022-09-25T14:04:34.071Z,17.08
2022-09-25T14:07:13.449Z,17.03
2022-09-25T14:09:46.403Z,17.16
2022-09-25T14:12:23.538Z,16.84
2022-09-25T14:14:56.002Z,17.01
2022-09-25T14:17:24.926Z,16.96
2022-09-25T14:19:54.131Z,16.72
2022-09-25T14:22:46.113Z,16.79
2022-09-25T14:25:40.627Z,17.00
2022-09-25T14:28:25.600Z,17.05
2022-09-25T14:31:23.932Z,16.92
2022-09-25T14:34:04.448Z,17.00
2022-09-25T14:36:37.163Z,17.02
2022-09-25T14:39:19.749Z,16.78
2022-09-25T14:42:06.430Z,16.66
2022-09-25T14:45:06.337Z,16.57
2022-09-25T14:47:38.844Z,16.79
2022-09-25T14:50:06.322Z,16.72
2022-09-25T14:52:35.046Z,16.67
2022-09-25T14:55:02.387Z,16.50
2022-09-25T14:57:37.170Z,17.13
2022-09-25T15:00:07.035Z,16.70
2022-09-25T15:02:38.047Z,16.64
2022-09-25T15:05:34.283Z,16.74
2022-09-25T15:08:02.840Z,16.92
2022-09-25T15:10:34.399Z,16.82
2022-09-25T15:13:14.063Z,16.97
2022-09-25T15:16:01.964Z,16.85
2022-09-25T15:18:29.375Z,16.81
2022-09-25T15:20:56.965Z,16.91
2022-09-25T15:23:24.325Z,16.66
2022-09-25T15:25:53.999Z,16.54
2022-09-25T15:28:24.545Z,16.57
2022-09-25T15:31:00.472Z,16.84
2022-09-25T15:33:29.913Z,16.83
2022-09-25T15:35:58.772Z,16.55
2022-09-25T15:38:34.200Z,16.17
2022-09-25T15:41:01.990Z,16.19
2022-09-25T15:43:32.289Z,15.99
2022-09-25T15:46:09.174Z,15.96
2022-09-25T15:48:40.544Z,16.18
2022-09-25T15:51:21.412Z,16.07
2022-09-25T15:53:59.071Z,16.32
2022-09-25T15:56:27.928Z,16.21
2022-09-25T15:59:18.428Z,15.77
2022-09-25T16:02:04.457Z,15.66
2022-09-25T16:04:47.224Z,15.90
2022-09-25T16:07:36.556Z,15.90
2022-09-25T16:10:12.168Z,15.40
2022-09-25T16:12:42.464Z,15.25
2022-09-25T16:15:26.626Z,15.60
2022-09-25T16:18:02.845Z,15.95
2022-09-25T16:20:34.533Z,16.37
2022-09-25T16:23:04.506Z,16.48
2022-09-25T16:25:42.468Z,16.20
2022-09-25T16:28:27.889Z,16.47
2022-09-25T16:31:04.579Z,16.35
2022-09-25T16:33:40.080Z,16.48
2022-09-25T16:36:17.543Z,16.36
2022-09-25T16:39:11.111Z,16.32
2022-09-25T16:41:40.297Z,16.69
2022-09-25T16:44:15.147Z,16.47
2022-09-25T16:46:43.487Z,16.50
2022-09-25T16:49:12.269Z,16.33
2022-09-25T16:51:45.889Z,16.57
2022-09-25T16:54:15.107Z,16.61
2022-09-25T16:56:43.079Z,16.36
2022-09-25T16:59:17.399Z,15.94
2022-09-25T17:01:45.868Z,15.98
2022-09-25T17:04:14.138Z,15.93
2022-09-25T17:06:44.382Z,15.99
2022-09-25T17:09:12.737Z,16.15
2022-09-25T17:11:40.630Z,16.22
2022-09-25T17:14:08.589Z,16.31
2022-09-25T17:16:36.226Z,16.36
2022-09-25T17:19:08.440Z,16.01
2022-09-25T17:21:36.025Z,15.91
2022-09-25T17:24:03.406Z,15.94
2022-09-25T17:26:30.857Z,15.94
2022-09-25T17:28:58.493Z,15.71
2022-09-25T17:31:25.985Z,15.85
2022-09-25T17:33:53.369Z,15.68
2022-09-25T17:36:21.096Z,15.62
2022-09-25T17:38:48.453Z,15.55
2022-09-25T17:41:18.224Z,15.33
2022-09-25T17:43:45.906Z,15.50
2022-09-25T17:46:16.163Z,15.31
2022-09-25T17:48:43.754Z,15.54
2022-09-25T17:51:18.013Z,15.62
2022-09-25T17:53:46.476Z,15.75
2022-09-25T17:56:14.045Z,15.79
2022-09-25T17:58:43.230Z,15.74
2022-09-25T18:01:24.609Z,15.64
2022-09-25T18:03:53.432Z,15.37
2022-09-25T18:06:20.767Z,15.25
2022-09-25T18:08:48.424Z,14.86
2022-09-25T18:11:16.196Z,14.49
2022-09-25T18:13:43.944Z,14.97
2022-09-25T18:16:22.054Z,15.18
2022-09-25T18:19:08.520Z,15.45
2022-09-25T18:21:54.215Z,15.24
2022-09-25T18:24:21.850Z,15.07
2022-09-25T18:26:50.197Z,15.18
2022-09-25T18:29:18.192Z,14.90
2022-09-25T18:31:46.549Z,15.16
2022-09-25T18:34:14.667Z,15.01
2022-09-25T18:36:42.359Z,15.49
2022-09-25T18:39:10.040Z,15.18
2022-09-25T18:41:37.908Z,14.49
2022-09-25T18:44:08.732Z,14.89
2022-09-25T18:46:38.254Z,14.54
2022-09-25T18:49:06.403Z,14.93
2022-09-25T18:51:33.869Z,15.41
2022-09-25T18:54:01.727Z,15.37
2022-09-25T18:56:29.838Z,15.39
2022-09-25T18:58:57.159Z,15.54
2022-09-25T19:01:25.204Z,15.11
2022-09-25T19:03:53.676Z,15.49
2022-09-25T19:06:21.138Z,15.66
2022-09-25T19:08:56.752Z,15.65
2022-09-25T19:11:24.755Z,15.30
2022-09-25T19:13:52.918Z,14.63
2022-09-25T19:16:20.568Z,15.65
2022-09-25T19:18:50.390Z,15.12
2022-09-25T19:21:21.192Z,15.61
2022-09-25T19:23:50.468Z,15.99
2022-09-25T19:26:20.940Z,15.69
2022-09-25T19:28:48.390Z,15.47
2022-09-25T19:31:17.735Z,15.65
2022-09-25T19:33:45.450Z,15.81
2022-09-25T19:36:26.613Z,16.03
2022-09-25T19:38:55.216Z,15.89
2022-09-25T19:41:30.556Z,15.64
2022-09-25T19:43:59.446Z,15.01
2022-09-25T19:46:28.798Z,15.59
2022-09-25T19:48:56.156Z,15.52
2022-09-25T19:51:24.221Z,15.32
2022-09-25T19:53:51.961Z,15.63
2022-09-25T19:56:19.637Z,15.95
2022-09-25T19:58:49.624Z,16.35
2022-09-25T20:01:19.001Z,16.11
2022-09-25T20:03:46.593Z,15.73
2022-09-25T20:06:16.034Z,15.98
2022-09-25T20:08:43.628Z,15.60
2022-09-25T20:11:22.024Z,15.34
2022-09-25T20:13:50.803Z,15.78
2022-09-25T20:16:19.933Z,15.72
2022-09-25T20:18:50.740Z,15.62
2022-09-25T20:21:21.234Z,15.55
2022-09-25T20:23:52.604Z,15.81
2022-09-25T20:26:20.651Z,16.20
2022-09-25T20:28:52.666Z,16.41
2022-09-25T20:31:20.517Z,15.88
2022-09-25T20:33:47.938Z,15.92
2022-09-25T20:36:15.613Z,15.96
2022-09-25T20:38:43.298Z,16.03
2022-09-25T20:41:11.757Z,16.18
2022-09-25T20:43:39.463Z,16.16
2022-09-25T20:46:09.244Z,16.23
2022-09-25T20:48:37.890Z,16.50
2022-09-25T20:51:09.673Z,16.22
2022-09-25T20:53:37.597Z,15.30
2022-09-25T20:56:12.517Z,15.80
2022-09-25T20:58:41.106Z,15.27
2022-09-25T21:01:10.174Z,15.18
2022-09-25T21:03:38.588Z,15.92
2022-09-25T21:06:08.134Z,16.08
2022-09-25T21:08:35.637Z,15.79
2022-09-25T21:11:03.030Z,16.15
2022-09-25T21:13:31.709Z,16.45
2022-09-25T21:16:06.251Z,16.50
2022-09-25T21:18:35.694Z,16.68
2022-09-25T21:21:04.414Z,16.60
2022-09-25T21:23:31.873Z,16.15
2022-09-25T21:26:04.438Z,15.89
2022-09-25T21:28:32.487Z,16.12
2022-09-25T21:31:13.929Z,16.34
2022-09-25T21:33:41.391Z,16.23
2022-09-25T21:36:10.026Z,16.45
2022-09-25T21:38:37.372Z,16.11
2022-09-25T21:41:06.620Z,16.45
2022-09-25T21:43:38.298Z,15.89
2022-09-25T21:46:16.451Z,15.85
2022-09-25T21:48:48.825Z,16.33
2022-09-25T21:51:16.326Z,15.83
2022-09-25T21:53:44.074Z,16.11
2022-09-25T21:56:14.340Z,15.40
2022-09-25T21:58:41.725Z,15.83
2022-09-25T22:01:12.294Z,15.53
2022-09-25T22:03:41.484Z,15.99
2022-09-25T22:06:10.893Z,15.75
2022-09-25T22:08:41.250Z,15.98
2022-09-25T22:11:09.098Z,16.37
2022-09-25T22:13:37.356Z,15.43
2022-09-25T22:16:10.907Z,15.58
2022-09-25T22:18:43.324Z,16.11
2022-09-25T22:21:11.860Z,16.45
2022-09-25T22:23:39.431Z,15.89
2022-09-25T22:26:06.795Z,16.21
2022-09-25T22:28:34.818Z,16.41
2022-09-25T22:31:12.514Z,16.22
2022-09-25T22:33:40.023Z,15.88
2022-09-25T22:36:08.312Z,15.56
2022-09-25T22:38:35.684Z,15.50
2022-09-25T22:41:07.784Z,15.61
2022-09-25T22:43:35.574Z,15.28
2022-09-25T22:46:03.164Z,15.72
2022-09-25T22:48:30.730Z,15.73
2022-09-25T22:51:03.792Z,15.67
2022-09-25T22:53:32.103Z,15.82
2022-09-25T22:56:21.065Z,16.29
2022-09-25T22:58:49.955Z,15.34
2022-09-25T23:01:23.224Z,15.37
2022-09-25T23:03:57.702Z,15.41
2022-09-25T23:06:25.980Z,15.84
2022-09-25T23:08:54.242Z,15.75
2022-09-25T23:11:22.002Z,15.05
2022-09-25T23:13:59.801Z,15.81
2022-09-25T23:16:27.475Z,15.21
2022-09-25T23:18:58.258Z,15.79
2022-09-25T23:21:26.033Z,15.47
2022-09-25T23:23:57.154Z,15.42
2022-09-25T23:26:24.760Z,14.97
2022-09-25T23:28:52.136Z,15.15
2022-09-25T23:31:19.709Z,15.61
2022-09-25T23:33:47.418Z,15.88
2022-09-25T23:36:17.591Z,15.49
2022-09-25T23:38:45.013Z,15.33
2022-09-25T23:41:20.072Z,15.76
2022-09-25T23:43:47.930Z,15.53
2022-09-25T23:46:16.083Z,15.85
2022-09-25T23:48:43.594Z,15.85
2022-09-25T23:51:11.354Z,15.88
2022-09-25T23:53:40.450Z,15.73
2022-09-25T23:56:09.502Z,15.67
2022-09-25T23:58:36.832Z,15.95
